Portada
METAR-TAF:

METAR-TAF

Aeropuertos :

Yazd, Irán

latitud: 31-54N, longitud: 054-24E, altitud: 1238 m

Observación

El informe se hizo hace 27 minutos, a las 21:00 UTC
Viento 12 kt del noroeste
Temperatura 2°C
Humedad 40%
Presión 1026 hPa
Visibilidad: 4000 m
arena

METAR: OIYY 212100Z 31012KT 4000 SA NSC 02/M10 Q1026

Hora: 00:57 (21:27 UTC)


TAF: falta

Observaciones y pronósticos meteorológicos de más de 4000 aeropuertos (mensajes METAR y TAF).

Los puntos amarillos y rojos representan las estaciones disponibles.

Ponga el ratón en el punto deseado para ver el nombre de la estación.

Haga clic para ver las observaciones y los pronósticos meteorológicos.

Para cambiar el mapa : haga clic en los botones verdes con una cruz de color negro para hacer un zoom, en el botón verde con un guión para alejar o en las flechas verdes para mapas adyacentes.


METAR-TAF: